Time;durP1;ratioP1;P1;durP2;ratioP2;P2;SDS_P1;SDS_P2;PMS_P1;PMS_P2;Temp;Humidity;BMP_temperature;BMP_pressure;BME280_temperature;BME280_humidity;BME280_pressure;Samples;Min_cycle;Max_cycle;Signal;HPM_P1;HPM_P2
2023/04/22 00:01:46;;;;;;;9.70;4.62;;;;;;;11.81;68.55;100811.14;5147299;55;1140917;-74
2023/04/22 00:06:51;;;;;;;10.30;5.70;;;;;;;11.76;68.25;100801.88;5042975;56;1138800;-70
2023/04/22 00:11:57;;;;;;;21.40;10.93;;;;;;;11.58;67.43;100800.14;5126842;56;1141020;-70
2023/04/22 00:17:03;;;;;;;24.87;11.37;;;;;;;11.27;67.35;100791.05;5094281;56;1142998;-74
2023/04/22 00:22:09;;;;;;;40.40;19.87;;;;;;;11.03;68.16;100787.59;5042094;57;1142859;-73
2023/04/22 00:27:14;;;;;;;35.07;15.57;;;;;;;11.03;69.28;100783.63;5031657;57;1142990;-69
2023/04/22 00:32:21;;;;;;;23.17;10.73;;;;;;;11.01;69.61;100774.95;4898870;57;1143332;-70
2023/04/22 00:37:27;;;;;;;15.43;8.00;;;;;;;10.94;69.87;100769.30;4911269;58;1143176;-69
2023/04/22 00:42:32;;;;;;;12.77;7.90;;;;;;;10.96;69.80;100778.45;4927296;58;1142180;-71
2023/04/22 00:47:38;;;;;;;12.35;5.90;;;;;;;10.91;69.72;100770.36;4946866;58;1140913;-73
2023/04/22 00:52:44;;;;;;;8.68;6.45;;;;;;;10.90;70.02;100766.51;4966265;58;1140917;-69
2023/04/22 00:57:52;;;;;;;11.40;6.00;;;;;;;10.86;69.91;100764.56;4946754;58;1138834;-71
2023/04/22 01:02:58;;;;;;;10.07;5.83;;;;;;;10.80;70.03;100764.20;4948478;57;1140759;-74
2023/04/22 01:08:04;;;;;;;10.27;5.57;;;;;;;10.68;70.00;100763.31;4965505;58;1140877;-68
2023/04/22 01:13:10;;;;;;;8.63;6.00;;;;;;;10.47;69.95;100767.05;4946194;58;1140916;-70
2023/04/22 01:18:16;;;;;;;21.47;6.30;;;;;;;10.30;70.34;100783.29;4883693;58;1138832;-71
2023/04/22 01:23:22;;;;;;;11.93;6.30;;;;;;;10.26;71.50;100774.36;4864356;58;1140967;-73
2023/04/22 01:28:29;;;;;;;12.57;7.10;;;;;;;10.19;71.63;100773.50;4893726;57;1140701;-71
2023/04/22 01:33:35;;;;;;;10.30;6.90;;;;;;;10.05;71.66;100768.33;4999601;57;1143486;-70
2023/04/22 01:38:41;;;;;;;11.70;7.43;;;;;;;9.99;71.71;100775.36;4973358;57;1140959;-72
2023/04/22 01:43:47;;;;;;;14.07;7.60;;;;;;;9.97;71.87;100776.41;4952450;57;1138940;-71
2023/04/22 01:48:53;;;;;;;11.30;6.93;;;;;;;9.95;72.40;100774.34;4933052;57;1138764;-70
2023/04/22 01:54:02;;;;;;;11.27;6.93;;;;;;;9.84;71.96;100777.28;4933243;57;1136641;-70
2023/04/22 01:59:08;;;;;;;11.50;6.40;;;;;;;9.75;72.16;100779.73;4973788;57;1136662;-72
2023/04/22 02:04:15;;;;;;;10.57;6.30;;;;;;;9.72;72.52;100770.23;5040991;56;1136659;-73
2023/04/22 02:09:20;;;;;;;9.10;5.77;;;;;;;9.66;72.40;100773.77;5014255;56;1136700;-71
2023/04/22 02:14:27;;;;;;;10.50;6.25;;;;;;;9.60;72.73;100769.77;5014204;56;1134921;-68
2023/04/22 02:19:33;;;;;;;8.80;5.05;;;;;;;9.46;72.26;100760.17;5035551;57;1136645;-71
2023/04/22 02:24:39;;;;;;;11.73;5.60;;;;;;;9.36;72.69;100763.52;5010238;57;1134672;-70
2023/04/22 02:29:45;;;;;;;11.80;5.85;;;;;;;9.34;73.50;100759.67;5010012;57;1136679;-71
2023/04/22 02:34:51;;;;;;;7.15;5.03;;;;;;;9.25;73.83;100755.03;5079383;56;1136618;-73
2023/04/22 02:39:57;;;;;;;15.73;4.93;;;;;;;9.22;74.03;100757.03;5055078;56;1134852;-69
2023/04/22 02:45:03;;;;;;;9.13;5.37;;;;;;;9.18;74.33;100753.27;5062865;56;1136629;-70
2023/04/22 02:50:10;;;;;;;8.77;5.27;;;;;;;9.15;74.86;100747.38;5083061;56;1134626;-67
2023/04/22 02:55:15;;;;;;;10.30;5.40;;;;;;;9.04;74.38;100748.08;5063877;57;1134574;-69
2023/04/22 03:00:21;;;;;;;10.05;4.67;;;;;;;8.87;74.58;100744.89;5067415;56;1136618;-70
2023/04/22 03:05:27;;;;;;;9.63;4.62;;;;;;;8.83;75.16;100746.91;5067834;56;1136673;-72
2023/04/22 03:10:32;;;;;;;18.93;6.00;;;;;;;8.67;74.90;100740.48;5087653;56;1134692;-70
2023/04/22 03:15:40;;;;;;;11.50;5.37;;;;;;;8.57;75.82;100745.13;4984711;57;1136641;-71
2023/04/22 03:20:46;;;;;;;11.22;6.17;;;;;;;8.54;76.60;100742.24;4985024;56;1136557;-73
2023/04/22 03:25:52;;;;;;;13.97;5.60;;;;;;;8.55;76.95;100740.45;5004638;56;1136815;-72
2023/04/22 03:30:58;;;;;;;10.65;5.95;;;;;;;8.55;76.75;100731.23;4984516;57;1136816;-70
2023/04/22 03:36:04;;;;;;;20.27;5.57;;;;;;;8.53;76.69;100729.16;5004540;57;1136733;-68
2023/04/22 03:41:10;;;;;;;10.60;4.97;;;;;;;8.36;76.05;100724.52;5028664;57;1138673;-70
2023/04/22 03:46:18;;;;;;;13.10;5.20;;;;;;;8.35;77.12;100725.93;5008889;57;1138722;-69
2023/04/22 03:51:31;;;;;;;13.70;5.73;;;;;;;8.43;77.86;100720.99;5011677;57;1138743;-71
2023/04/22 03:56:38;;;;;;;11.45;6.50;;;;;;;8.38;77.47;100720.47;5067467;56;1147182;-69
2023/04/22 04:01:46;;;;;;;13.97;6.93;;;;;;;8.38;77.86;100727.05;5032922;57;1138798;-69
2023/04/22 04:06:53;;;;;;;11.47;5.90;;;;;;;8.38;78.38;100734.96;4878211;58;1136858;-72
2023/04/22 04:12:00;;;;;;;10.60;6.05;;;;;;;8.13;77.37;100729.06;4919147;57;1136772;-73
2023/04/22 04:17:13;;;;;;;20.53;8.07;;;;;;;7.96;77.82;100734.55;4988986;56;1136896;-68
2023/04/22 04:22:14;;;;;;;25.17;10.30;;;;;;;7.97;79.34;100725.24;5008466;57;1136656;-71
2023/04/22 04:27:22;;;;;;;19.30;9.43;;;;;;;7.94;79.52;100724.14;5096058;54;1138621;-70
2023/04/22 04:32:33;;;;;;;27.27;9.20;;;;;;;7.96;80.00;100726.66;5008701;57;1136774;-72
2023/04/22 04:37:39;;;;;;;25.30;10.10;;;;;;;8.00;80.33;100725.05;5110574;55;1136858;-71
2023/04/22 04:42:46;;;;;;;17.37;9.83;;;;;;;8.01;80.27;100724.11;5067792;55;1138804;-71
2023/04/22 04:47:53;;;;;;;20.08;9.05;;;;;;;8.01;79.94;100725.42;4969980;57;1137106;-67
2023/04/22 04:53:01;;;;;;;19.47;9.40;;;;;;;8.04;79.76;100725.23;5052240;56;1138659;-68
2023/04/22 04:58:08;;;;;;;20.20;9.60;;;;;;;8.16;79.63;100724.92;5028905;54;1138852;-69
2023/04/22 05:03:14;;;;;;;17.77;9.03;;;;;;;8.18;79.81;100728.30;5032748;54;1138846;-73
2023/04/22 05:08:21;;;;;;;19.60;8.63;;;;;;;8.31;80.41;100726.56;5045506;55;1138819;-71
2023/04/22 05:13:28;;;;;;;14.73;7.30;;;;;;;8.39;79.87;100728.75;4987746;55;1139008;-69
2023/04/22 05:18:34;;;;;;;12.57;7.60;;;;;;;8.40;79.93;100723.86;4995922;57;1136788;-73
2023/04/22 05:23:41;;;;;;;13.60;6.90;;;;;;;8.40;79.93;100723.86;5004369;57;1136841;-73
2023/04/22 05:28:47;;;;;;;17.27;6.55;;;;;;;8.53;80.18;100732.64;5038299;57;1136719;-73
2023/04/22 05:33:54;;;;;;;11.43;6.30;;;;;;;8.68;80.80;100731.63;5008304;54;1136680;-70
2023/04/22 05:39:01;;;;;;;12.23;6.23;;;;;;;8.85;80.37;100729.19;4952123;57;1136701;-70
2023/04/22 05:44:08;;;;;;;9.63;5.87;;;;;;;8.98;79.14;100731.38;5011320;57;1136709;-72
2023/04/22 05:49:13;;;;;;;12.67;6.57;;;;;;;9.26;80.58;100734.29;5116018;56;1134803;-67
2023/04/22 05:54:37;;;;;;;13.25;6.47;;;;;;;9.51;79.92;100731.63;5017524;56;1136722;-72
2023/04/22 05:59:43;;;;;;;14.73;6.07;;;;;;;9.86;79.72;100726.52;5026169;57;1139207;-67
2023/04/22 06:04:49;;;;;;;9.58;5.90;;;;;;;10.06;78.68;100726.41;5084634;56;1138924;-68
2023/04/22 06:09:55;;;;;;;13.00;6.65;;;;;;;10.27;78.56;100726.67;5061781;56;1138765;-70
2023/04/22 06:15:01;;;;;;;14.03;6.33;;;;;;;10.60;79.16;100729.95;5045485;56;1140759;-71
2023/04/22 06:20:07;;;;;;;21.27;6.50;;;;;;;10.84;78.01;100736.08;5052714;56;1140875;-72
2023/04/22 06:25:13;;;;;;;17.77;7.27;;;;;;;11.11;78.14;100729.64;5032661;56;1141100;-69
2023/04/22 06:30:18;;;;;;;13.03;6.77;;;;;;;11.34;78.23;100723.89;5034094;56;1141054;-69
2023/04/22 06:35:24;;;;;;;12.33;6.80;;;;;;;11.66;77.39;100723.55;4951588;57;1141136;-69
2023/04/22 06:40:31;;;;;;;20.13;8.03;;;;;;;11.84;77.08;100719.95;5022353;57;1140903;-70
2023/04/22 06:45:40;;;;;;;16.43;9.37;;;;;;;12.14;74.34;100715.33;4979103;57;1140886;-72
2023/04/22 06:50:47;;;;;;;17.57;9.18;;;;;;;12.43;72.79;100708.48;4976493;56;1140874;-70
2023/04/22 06:55:53;;;;;;;11.33;7.83;;;;;;;12.63;71.66;100703.70;4994900;57;1141058;-68
2023/04/22 07:00:59;;;;;;;19.27;10.00;;;;;;;12.85;69.20;100705.88;4955163;58;1140906;-72
2023/04/22 07:06:05;;;;;;;15.97;9.63;;;;;;;13.02;70.51;100710.61;4911570;58;1143062;-69
2023/04/22 07:11:11;;;;;;;17.20;8.23;;;;;;;13.28;71.42;100711.09;4999539;58;1140774;-68
2023/04/22 07:16:21;;;;;;;12.90;8.30;;;;;;;13.52;71.02;100694.84;5017604;56;1140785;-69
2023/04/22 07:21:27;;;;;;;15.35;8.73;;;;;;;13.76;71.80;100695.82;4980171;57;1141071;-68
2023/04/22 07:26:33;;;;;;;14.60;9.10;;;;;;;13.91;70.92;100693.14;4999096;58;1140875;-68
2023/04/22 07:31:39;;;;;;;15.53;9.10;;;;;;;14.10;72.09;100685.20;4983017;57;1140963;-70
2023/04/22 07:36:44;;;;;;;16.82;8.55;;;;;;;14.34;71.48;100679.52;4965631;57;1141014;-68
2023/04/22 07:41:50;;;;;;;18.60;9.48;;;;;;;14.42;70.42;100683.66;5082566;56;1140737;-68
2023/04/22 07:46:56;;;;;;;16.57;10.20;;;;;;;14.61;71.68;100683.67;4945358;57;1141033;-67
2023/04/22 07:52:01;;;;;;;20.03;9.87;;;;;;;14.89;70.61;100679.78;4895592;58;1142899;-68
2023/04/22 07:57:07;;;;;;;15.55;8.75;;;;;;;15.05;68.68;100674.70;4919642;57;1140942;-69
2023/04/22 08:02:13;;;;;;;15.63;8.87;;;;;;;15.31;70.76;100675.74;4977180;57;1141001;-68
2023/04/22 08:07:18;;;;;;;16.15;9.13;;;;;;;15.65;68.71;100675.22;5062061;56;1140994;-68
2023/04/22 08:12:24;;;;;;;22.23;8.73;;;;;;;15.96;69.86;100670.42;4978460;57;1141070;-68
2023/04/22 08:17:29;;;;;;;17.43;9.63;;;;;;;16.21;69.24;100674.17;4940356;58;1140879;-68
2023/04/22 08:22:35;;;;;;;12.80;8.70;;;;;;;16.30;64.44;100681.29;4979844;55;1140745;-69
2023/04/22 08:27:41;;;;;;;16.03;9.50;;;;;;;16.41;66.43;100666.38;4979491;56;1141067;-71
2023/04/22 08:32:47;;;;;;;13.15;7.83;;;;;;;16.70;66.65;100666.15;5010633;56;1140913;-68
2023/04/22 08:37:52;;;;;;;11.38;8.18;;;;;;;16.91;65.94;100662.65;5062270;56;1141095;-70
2023/04/22 08:42:58;;;;;;;13.65;8.95;;;;;;;17.16;66.28;100668.98;5069367;56;1141094;-67
2023/04/22 08:48:07;;;;;;;12.67;7.97;;;;;;;17.33;64.80;100661.40;5137546;56;1140834;-70
2023/04/22 08:53:13;;;;;;;14.70;7.90;;;;;;;17.55;64.18;100664.03;5117679;56;1140985;-70
2023/04/22 08:58:19;;;;;;;8.93;7.23;;;;;;;17.73;62.93;100653.23;5113773;56;1140768;-70
2023/04/22 09:03:24;;;;;;;25.90;7.63;;;;;;;17.87;61.74;100654.79;5104599;56;1138881;-67
2023/04/22 09:08:31;;;;;;;9.13;7.00;;;;;;;18.04;59.11;100650.32;5137661;56;1140809;-70
2023/04/22 09:13:36;;;;;;;18.73;6.90;;;;;;;18.24;61.66;100646.85;5117803;56;1138941;-68
2023/04/22 09:18:45;;;;;;;8.40;6.03;;;;;;;18.33;54.09;100639.69;5096565;56;1188934;-68
2023/04/22 09:23:53;;;;;;;9.10;5.92;;;;;;;18.40;53.26;100642.85;5137847;56;1138755;-71
2023/04/22 09:29:00;;;;;;;6.10;4.80;;;;;;;18.62;54.93;100638.72;5115962;56;1138838;-68
2023/04/22 09:34:05;;;;;;;6.33;4.63;;;;;;;18.82;52.45;100643.20;5058333;56;1138685;-69
2023/04/22 09:39:11;;;;;;;10.13;4.97;;;;;;;18.97;52.85;100631.62;5052977;56;1138961;-71
2023/04/22 09:44:18;;;;;;;5.07;4.40;;;;;;;19.12;52.68;100619.69;5032666;57;1140809;-70
2023/04/22 09:49:24;;;;;;;10.17;5.27;;;;;;;19.28;46.49;100616.96;5033219;57;1138827;-68
2023/04/22 09:54:29;;;;;;;13.30;3.97;;;;;;;19.44;48.56;100612.04;5003098;57;1140902;-67
2023/04/22 09:59:35;;;;;;;9.83;4.50;;;;;;;19.60;47.25;100616.03;5052897;57;1140912;-71
2023/04/22 10:04:42;;;;;;;5.60;4.70;;;;;;;19.73;44.99;100601.20;5078152;56;1138733;-70
2023/04/22 10:09:48;;;;;;;6.57;3.70;;;;;;;19.79;45.01;100601.34;5043444;56;1138842;-70
2023/04/22 10:14:53;;;;;;;4.95;4.08;;;;;;;19.90;44.93;100599.59;5073652;56;1138725;-68
2023/04/22 10:20:03;;;;;;;5.35;4.55;;;;;;;20.05;46.31;100596.97;5038515;56;1138772;-67
2023/04/22 10:25:26;;;;;;;6.65;4.12;;;;;;;20.22;44.80;100599.04;5041138;56;1138975;-68
2023/04/22 10:30:36;;;;;;;6.33;4.77;;;;;;;20.30;43.51;100587.74;5117503;56;1138839;-68
2023/04/22 10:35:45;;;;;;;6.95;4.12;;;;;;;20.38;40.06;100580.64;5115562;56;1139122;-70
2023/04/22 10:41:02;;;;;;;5.87;4.78;;;;;;;20.23;38.02;100580.57;5173056;55;1138836;-69
2023/04/22 10:46:07;;;;;;;7.58;4.75;;;;;;;20.25;38.82;100575.86;5183326;55;1138759;-70
2023/04/22 10:51:32;;;;;;;7.80;4.30;;;;;;;20.45;38.94;100571.70;5203380;55;1138951;-70
2023/04/22 10:57:02;;;;;;;6.87;4.75;;;;;;;20.63;39.61;100561.42;5024494;57;1138829;-68
2023/04/22 11:02:09;;;;;;;8.03;4.97;;;;;;;20.75;40.54;100563.69;4949671;57;1138923;-70
2023/04/22 11:07:25;;;;;;;5.25;4.53;;;;;;;20.84;38.95;100555.84;5051116;57;1138730;-69
2023/04/22 11:12:41;;;;;;;11.38;5.37;;;;;;;20.75;37.60;100551.59;4974655;57;1138747;-69
2023/04/22 11:17:52;;;;;;;8.52;4.20;;;;;;;20.79;37.33;100545.64;5012196;57;1140998;-70
2023/04/22 11:22:58;;;;;;;7.70;4.90;;;;;;;20.72;37.29;100542.03;5043054;57;1138779;-70
2023/04/22 11:28:04;;;;;;;10.30;5.28;;;;;;;20.85;40.84;100540.88;5011648;57;1138964;-69
2023/04/22 11:33:10;;;;;;;7.60;5.00;;;;;;;21.00;37.61;100532.81;5012355;57;1140980;-69
2023/04/22 11:38:15;;;;;;;9.00;4.45;;;;;;;21.22;39.57;100525.19;5045246;56;1138652;-68
2023/04/22 11:43:21;;;;;;;6.87;5.00;;;;;;;21.34;38.07;100515.60;5152509;55;1138748;-70
2023/04/22 11:48:27;;;;;;;8.85;4.45;;;;;;;21.27;37.66;100513.84;5152378;56;1138746;-68
2023/04/22 11:53:32;;;;;;;7.05;4.85;;;;;;;21.33;39.79;100519.31;5152445;55;1138726;-70
2023/04/22 11:58:40;;;;;;;10.03;4.72;;;;;;;21.47;37.74;100505.50;5016231;57;1139087;-69
2023/04/22 12:03:46;;;;;;;11.53;4.85;;;;;;;21.57;38.72;100499.80;5020997;56;1141006;-70
2023/04/22 12:08:53;;;;;;;9.33;6.37;;;;;;;21.65;36.68;100505.07;5183307;55;1140860;-67
2023/04/22 12:14:07;;;;;;;6.40;5.10;;;;;;;21.71;36.41;100501.59;5203082;55;1138964;-70
2023/04/22 12:19:12;;;;;;;8.10;5.80;;;;;;;21.78;40.71;100488.22;5133701;55;1138875;-70
2023/04/22 12:24:21;;;;;;;7.30;6.53;;;;;;;22.02;39.39;100487.33;5060167;56;1138855;-68
2023/04/22 12:29:33;;;;;;;7.70;5.12;;;;;;;22.04;36.38;100483.09;5032636;57;1138913;-68
2023/04/22 12:34:39;;;;;;;9.53;5.33;;;;;;;21.94;33.73;100486.61;5052250;57;1139044;-69
2023/04/22 12:39:45;;;;;;;7.20;4.50;;;;;;;21.94;36.99;100478.53;5013097;57;1138797;-67
2023/04/22 12:44:51;;;;;;;9.05;4.20;;;;;;;21.78;35.81;100474.24;4952122;57;1138801;-70
2023/04/22 12:50:00;;;;;;;9.08;5.92;;;;;;;21.80;34.87;100472.20;5027479;57;1138810;-69
2023/04/22 12:55:05;;;;;;;11.40;5.30;;;;;;;21.78;34.94;100459.95;4979809;57;1138765;-70
2023/04/22 13:00:17;;;;;;;11.25;5.80;;;;;;;21.84;35.95;100455.98;4979700;57;1140818;-69
2023/04/22 13:05:20;;;;;;;10.05;4.92;;;;;;;21.86;34.55;100444.98;5052944;56;1140934;-68
2023/04/22 13:10:27;;;;;;;6.55;4.92;;;;;;;21.86;35.49;100446.34;4902943;58;1140846;-68
2023/04/22 13:15:32;;;;;;;11.57;4.25;;;;;;;21.93;34.05;100456.66;4923475;57;1139009;-69
2023/04/22 13:20:39;;;;;;;6.37;4.83;;;;;;;22.04;34.61;100443.53;4991852;57;1140755;-68
2023/04/22 13:25:46;;;;;;;14.07;5.60;;;;;;;22.06;33.93;100438.78;4953357;58;1138649;-70
2023/04/22 13:30:52;;;;;;;7.67;4.83;;;;;;;22.23;34.41;100433.94;4902504;57;1140872;-70
2023/04/22 13:35:58;;;;;;;8.73;4.50;;;;;;;22.18;34.54;100422.07;4995801;57;1138766;-67
2023/04/22 13:41:04;;;;;;;7.87;4.92;;;;;;;22.31;34.44;100414.07;4938997;57;1138735;-67
2023/04/22 13:46:09;;;;;;;8.45;5.22;;;;;;;22.28;35.66;100409.11;4932637;58;1138719;-68
2023/04/22 13:51:16;;;;;;;9.43;4.45;;;;;;;22.24;33.23;100405.97;4960010;57;1138799;-70
2023/04/22 13:56:22;;;;;;;7.92;5.85;;;;;;;22.10;32.32;100400.17;5015671;56;1138709;-68
2023/04/22 14:01:28;;;;;;;13.22;8.75;;;;;;;22.10;32.32;100400.17;5010019;57;1138802;-69
2023/04/22 14:06:34;;;;;;;6.90;4.58;;;;;;;22.21;33.89;100391.53;4935317;57;1141038;-68
2023/04/22 14:11:39;;;;;;;5.70;5.20;;;;;;;22.31;33.66;100392.00;4985461;57;1138844;-70
2023/04/22 14:16:45;;;;;;;6.92;4.45;;;;;;;22.36;33.17;100385.52;4968967;57;1139025;-69
2023/04/22 14:21:51;;;;;;;10.95;7.62;;;;;;;22.42;33.03;100380.69;4946477;57;1138920;-67
2023/04/22 14:27:00;;;;;;;23.30;15.63;;;;;;;22.42;33.31;100372.60;5023603;56;1140783;-69
2023/04/22 14:32:06;;;;;;;12.40;6.47;;;;;;;22.26;31.28;100370.23;5066430;56;1142837;-67
2023/04/22 14:37:12;;;;;;;9.65;6.10;;;;;;;22.17;31.60;100368.70;4976272;57;1141001;-68
2023/04/22 14:42:19;;;;;;;12.60;6.62;;;;;;;22.23;32.19;100370.62;4937212;57;1138847;-69
2023/04/22 14:47:24;;;;;;;8.85;6.92;;;;;;;22.39;34.34;100360.03;4898379;58;1141093;-69
2023/04/22 14:52:32;;;;;;;11.63;7.60;;;;;;;22.54;31.75;100362.08;4918878;57;1138946;-69
2023/04/22 14:57:38;;;;;;;15.88;12.28;;;;;;;22.35;31.78;100362.29;4988499;57;1140894;-70
2023/04/22 15:02:44;;;;;;;11.40;6.47;;;;;;;22.24;32.70;100361.51;4976538;56;1142911;-70
2023/04/22 15:07:51;;;;;;;10.85;5.50;;;;;;;22.26;33.12;100354.06;4935027;56;1141090;-69
2023/04/22 15:12:56;;;;;;;7.80;5.57;;;;;;;22.40;32.31;100345.53;4974924;56;1140817;-68
2023/04/22 15:18:04;;;;;;;6.12;4.95;;;;;;;22.39;31.49;100337.96;4960339;57;1138909;-68
2023/04/22 15:23:09;;;;;;;7.33;6.00;;;;;;;22.35;33.46;100337.20;4957044;56;1138861;-67
2023/04/22 15:28:15;;;;;;;7.28;6.12;;;;;;;22.31;31.66;100351.58;4987927;57;1138707;-76
2023/04/22 15:33:21;;;;;;;7.75;5.92;;;;;;;22.26;30.33;100349.19;4951207;57;1138756;-75
2023/04/22 15:38:26;;;;;;;7.25;5.65;;;;;;;22.11;30.76;100349.31;4948917;57;1138842;-78
2023/04/22 15:43:32;;;;;;;6.53;5.30;;;;;;;22.16;32.20;100346.84;4972714;57;1138802;-76
2023/04/22 15:48:39;;;;;;;6.40;5.78;;;;;;;22.15;30.50;100345.20;4975622;56;1138838;-77
2023/04/22 15:53:46;;;;;;;9.15;5.95;;;;;;;22.14;31.59;100351.62;5000911;56;1138840;-77
2023/04/22 15:58:52;;;;;;;9.60;6.42;;;;;;;22.17;31.30;100344.97;5035452;55;1138799;-77
2023/04/22 16:03:58;;;;;;;9.35;6.30;;;;;;;22.06;31.24;100336.43;5186253;55;1138748;-76
2023/04/22 16:09:04;;;;;;;11.88;5.72;;;;;;;22.13;31.78;100332.95;5127594;55;1138747;-76
2023/04/22 16:14:11;;;;;;;24.70;18.02;;;;;;;22.17;31.86;100330.16;4965504;57;1140907;-76
2023/04/22 16:19:16;;;;;;;9.23;6.78;;;;;;;22.17;31.67;100324.77;5062111;56;1143073;-77
2023/04/22 16:24:22;;;;;;;10.60;6.30;;;;;;;22.13;32.07;100327.05;5127530;54;1138921;-77
2023/04/22 16:29:27;;;;;;;8.15;5.80;;;;;;;22.05;31.73;100323.99;5042697;55;1141023;-77
2023/04/22 16:34:34;;;;;;;9.03;5.92;;;;;;;22.06;31.65;100318.09;5127128;55;1138874;-77
2023/04/22 16:39:40;;;;;;;29.57;11.45;;;;;;;21.96;32.06;100318.42;5092232;56;1138635;-77
2023/04/22 16:44:45;;;;;;;17.23;6.80;;;;;;;21.93;32.52;100311.25;4955619;57;1143007;-77
2023/04/22 16:49:51;;;;;;;31.68;10.20;;;;;;;21.86;32.02;100305.81;4955688;57;1140919;-77
2023/04/22 16:54:57;;;;;;;23.63;10.30;;;;;;;21.85;32.94;100300.11;4980063;55;1143051;-77
2023/04/22 17:00:04;;;;;;;38.47;11.77;;;;;;;21.79;32.32;100294.69;5011318;57;1143626;-77
2023/04/22 17:05:10;;;;;;;15.45;7.92;;;;;;;21.74;33.05;100291.23;5155371;55;1142911;-78
2023/04/22 17:10:16;;;;;;;67.85;27.60;;;;;;;21.64;32.61;100290.25;5184695;55;1141006;-79
2023/04/22 17:15:21;;;;;;;29.40;12.50;;;;;;;21.57;33.34;100290.70;5017331;57;1142884;-77
2023/04/22 17:20:27;;;;;;;16.37;7.33;;;;;;;21.49;33.36;100283.30;5032967;56;1142842;-77
2023/04/22 17:25:34;;;;;;;11.57;6.47;;;;;;;21.36;32.88;100284.87;5021749;57;1141175;-78
2023/04/22 17:30:40;;;;;;;14.98;11.18;;;;;;;21.20;33.12;100282.45;5122278;55;1140982;-80
2023/04/22 17:35:45;;;;;;;17.62;11.18;;;;;;;21.05;33.66;100281.66;5097250;56;1142852;-77
2023/04/22 17:40:51;;;;;;;9.22;7.22;;;;;;;20.93;34.03;100284.55;5075095;55;1264613;-78
2023/04/22 17:45:57;;;;;;;43.55;14.35;;;;;;;20.82;34.87;100276.45;5134696;55;1138743;-77
2023/04/22 17:51:05;;;;;;;88.50;24.95;;;;;;;20.84;36.31;100273.07;5097367;56;1142989;-78
2023/04/22 17:56:11;;;;;;;62.00;27.37;;;;;;;20.71;37.37;100271.09;5117666;55;1142931;-76
2023/04/22 18:01:16;;;;;;;69.87;16.37;;;;;;;20.53;38.16;100267.98;5131919;55;1142869;-79
2023/04/22 18:06:22;;;;;;;35.28;12.33;;;;;;;20.37;38.72;100269.55;5106757;55;1142892;-80
2023/04/22 18:11:28;;;;;;;43.05;13.20;;;;;;;20.14;39.31;100268.83;5032564;56;1142889;-76
2023/04/22 18:16:33;;;;;;;45.17;12.77;;;;;;;19.87;40.19;100271.64;5003859;56;1145651;-77
2023/04/22 18:21:39;;;;;;;24.70;9.58;;;;;;;19.54;41.33;100276.55;5147391;56;1142937;-77
2023/04/22 18:26:45;;;;;;;34.27;16.50;;;;;;;19.26;42.77;100277.08;5043054;56;1140778;-78
2023/04/22 18:31:51;;;;;;;101.60;51.25;;;;;;;19.00;44.00;100281.16;5022718;56;1142909;-79
2023/04/22 18:36:57;;;;;;;78.02;19.12;;;;;;;18.75;44.70;100284.53;5146144;56;1145098;-79
2023/04/22 18:42:03;;;;;;;83.45;16.12;;;;;;;18.58;45.90;100285.09;5116361;56;1142994;-78
2023/04/22 18:47:09;;;;;;;108.63;16.50;;;;;;;18.43;46.38;100288.20;5116602;56;1143115;-78
2023/04/22 18:52:15;;;;;;;78.10;16.67;;;;;;;18.32;47.39;100289.94;5136759;56;1144948;-78
2023/04/22 18:57:21;;;;;;;72.83;17.57;;;;;;;18.08;47.88;100282.82;5116701;55;1142910;-77
2023/04/22 19:02:27;;;;;;;41.43;14.30;;;;;;;18.04;48.75;100282.83;5117810;56;1142942;-79
2023/04/22 19:07:32;;;;;;;39.93;9.70;;;;;;;17.88;49.43;100286.39;5127469;56;1143952;-78
2023/04/22 19:12:38;;;;;;;40.53;8.67;;;;;;;17.72;50.27;100285.13;5147179;55;1141034;-76
2023/04/22 19:17:44;;;;;;;19.00;7.50;;;;;;;17.62;51.09;100285.76;5127338;56;1140923;-79
2023/04/22 19:22:50;;;;;;;17.13;8.03;;;;;;;17.47;51.59;100289.13;5127309;56;1140952;-79
2023/04/22 19:27:55;;;;;;;20.73;7.50;;;;;;;17.29;52.16;100280.45;5147465;56;1140799;-77
2023/04/22 19:33:01;;;;;;;14.80;7.07;;;;;;;17.12;52.97;100286.80;5127288;56;1140768;-78
2023/04/22 19:38:07;;;;;;;33.57;14.30;;;;;;;16.96;54.33;100287.62;5119650;56;1140795;-78
2023/04/22 19:43:12;;;;;;;28.37;8.67;;;;;;;16.80;54.81;100277.75;5079895;54;1143051;-77
2023/04/22 19:48:18;;;;;;;26.23;10.27;;;;;;;16.71;55.15;100273.91;5041597;56;1140912;-78
2023/04/22 19:53:24;;;;;;;25.33;13.83;;;;;;;16.58;55.82;100275.69;5037584;57;1143003;-78
2023/04/22 19:58:30;;;;;;;31.17;16.85;;;;;;;16.39;56.59;100270.63;5038020;57;1142879;-78
2023/04/22 20:03:37;;;;;;;24.47;10.57;;;;;;;16.30;57.20;100266.27;5090835;56;1142909;-77
2023/04/22 20:08:43;;;;;;;14.63;8.30;;;;;;;16.24;57.55;100266.41;5118869;56;1142843;-78
2023/04/22 20:13:50;;;;;;;21.33;9.63;;;;;;;16.03;57.72;100268.19;5127117;55;1140809;-77
2023/04/22 20:18:56;;;;;;;30.07;14.63;;;;;;;15.89;58.68;100264.75;5136922;55;1140895;-77
2023/04/22 20:24:04;;;;;;;27.37;12.18;;;;;;;15.77;59.01;100252.70;5116336;55;1142846;-78
2023/04/22 20:29:09;;;;;;;27.00;10.77;;;;;;;15.75;59.44;100256.85;5116187;56;1143106;-77
2023/04/22 20:34:15;;;;;;;15.47;7.83;;;;;;;15.73;59.39;100252.70;5136565;55;1143016;-76
2023/04/22 20:39:22;;;;;;;12.20;7.33;;;;;;;15.75;59.98;100260.02;5122568;55;1140732;-77
2023/04/22 20:44:28;;;;;;;21.93;9.07;;;;;;;15.66;59.99;100259.64;5126943;55;1140930;-78
2023/04/22 20:49:33;;;;;;;19.03;8.30;;;;;;;15.34;60.20;100261.57;5038171;57;1140828;-77
2023/04/22 20:54:40;;;;;;;26.40;10.03;;;;;;;15.18;60.86;100255.62;5057801;57;1141084;-77
2023/04/22 20:59:46;;;;;;;48.70;25.86;;;;;;;15.01;61.59;100257.31;5037110;56;1142976;-79
2023/04/22 21:04:52;;;;;;;36.40;22.93;;;;;;;14.96;61.56;100259.62;5036940;57;1143074;-77
2023/04/22 21:09:58;;;;;;;41.74;23.88;;;;;;;14.97;61.28;100256.47;5010527;57;1143090;-75
2023/04/22 21:15:05;;;;;;;25.43;15.10;;;;;;;14.98;60.98;100250.96;5006903;57;1143116;-76
2023/04/22 21:20:11;;;;;;;26.95;15.75;;;;;;;14.96;60.91;100245.47;4913872;58;1142995;-79
2023/04/22 21:25:20;;;;;;;22.43;13.07;;;;;;;15.00;61.07;100250.31;5017971;57;1143086;-79
2023/04/22 21:30:26;;;;;;;31.30;14.75;;;;;;;15.02;61.13;100246.17;4996007;57;1263271;-79
2023/04/22 21:35:32;;;;;;;30.60;16.63;;;;;;;15.00;61.41;100249.48;4908674;57;1143315;-79
2023/04/22 21:40:38;;;;;;;30.17;12.03;;;;;;;14.91;61.67;100257.91;4986783;57;1142999;-79
2023/04/22 21:45:44;;;;;;;33.90;14.77;;;;;;;14.81;62.05;100250.50;5018195;57;1142789;-79
2023/04/22 21:50:50;;;;;;;26.43;14.27;;;;;;;14.63;62.00;100254.98;4998556;56;1143052;-76
2023/04/22 21:55:56;;;;;;;28.17;13.27;;;;;;;14.49;62.54;100248.86;5082054;56;1143050;-80
2023/04/22 22:01:01;;;;;;;22.32;14.65;;;;;;;14.33;62.78;100252.14;5014260;57;1142982;-76
2023/04/22 22:06:07;;;;;;;24.63;13.80;;;;;;;14.23;63.13;100252.18;4994215;57;1142993;-76
2023/04/22 22:11:13;;;;;;;24.67;14.07;;;;;;;14.19;63.33;100253.98;5016658;56;1142989;-78
2023/04/22 22:16:18;;;;;;;31.87;16.87;;;;;;;14.04;63.30;100255.81;5056416;56;1142928;-76
2023/04/22 22:21:24;;;;;;;28.33;15.93;;;;;;;14.04;62.86;100254.97;5126962;55;1143028;-76
2023/04/22 22:26:35;;;;;;;31.40;16.17;;;;;;;14.03;62.60;100251.96;5126799;56;1143145;-79
2023/04/22 22:31:40;;;;;;;29.80;17.00;;;;;;;14.11;62.29;100251.20;5127086;56;1143048;-78
2023/04/22 22:36:46;;;;;;;39.60;17.73;;;;;;;14.14;61.38;100246.92;5147114;55;1143439;-78
2023/04/22 22:41:52;;;;;;;30.20;15.97;;;;;;;14.12;60.44;100244.41;5042397;57;1143078;-78
2023/04/22 22:46:57;;;;;;;27.67;17.07;;;;;;;14.09;60.27;100236.23;5040969;57;1143005;-78
2023/04/22 22:52:05;;;;;;;28.23;16.40;;;;;;;14.07;59.65;100230.72;5214004;55;1142831;-78
2023/04/22 22:57:11;;;;;;;30.92;16.35;;;;;;;14.03;59.27;100230.69;5192904;55;1142986;-75